sensor_id;sensor_type;location;lat;lon;timestamp;temperature;humidity
15452;DHT22;7827;53.594;9.938;2023-04-24T00:02:00;13.00;99.90
15452;DHT22;7827;53.594;9.938;2023-04-24T00:04:30;12.90;99.90
15452;DHT22;7827;53.594;9.938;2023-04-24T00:06:58;12.90;99.90
15452;DHT22;7827;53.594;9.938;2023-04-24T00:09:27;12.90;99.90
15452;DHT22;7827;53.594;9.938;2023-04-24T00:11:56;12.90;99.90
15452;DHT22;7827;53.594;9.938;2023-04-24T00:14:25;12.80;99.90
15452;DHT22;7827;53.594;9.938;2023-04-24T00:16:53;12.70;99.90
15452;DHT22;7827;53.594;9.938;2023-04-24T00:19:21;12.80;99.90
15452;DHT22;7827;53.594;9.938;2023-04-24T00:21:50;12.80;99.90
15452;DHT22;7827;53.594;9.938;2023-04-24T00:24:18;12.90;99.90
15452;DHT22;7827;53.594;9.938;2023-04-24T00:26:47;12.80;99.90
15452;DHT22;7827;53.594;9.938;2023-04-24T00:29:17;12.80;99.90
15452;DHT22;7827;53.594;9.938;2023-04-24T00:31:45;12.90;99.90
15452;DHT22;7827;53.594;9.938;2023-04-24T00:34:13;12.80;99.90
15452;DHT22;7827;53.594;9.938;2023-04-24T00:36:42;12.80;99.90
15452;DHT22;7827;53.594;9.938;2023-04-24T00:39:10;12.80;99.90
15452;DHT22;7827;53.594;9.938;2023-04-24T00:41:38;12.70;99.90
15452;DHT22;7827;53.594;9.938;2023-04-24T00:44:07;12.70;99.90
15452;DHT22;7827;53.594;9.938;2023-04-24T00:46:36;12.80;99.90
15452;DHT22;7827;53.594;9.938;2023-04-24T00:49:06;12.70;99.90
15452;DHT22;7827;53.594;9.938;2023-04-24T00:51:34;12.70;99.90
15452;DHT22;7827;53.594;9.938;2023-04-24T00:54:03;12.70;99.90
15452;DHT22;7827;53.594;9.938;2023-04-24T00:56:32;12.60;99.90
15452;DHT22;7827;53.594;9.938;2023-04-24T00:59:01;12.60;99.90
15452;DHT22;7827;53.594;9.938;2023-04-24T01:01:29;12.50;99.90
15452;DHT22;7827;53.594;9.938;2023-04-24T01:04:01;12.50;99.90
15452;DHT22;7827;53.594;9.938;2023-04-24T01:06:30;12.50;99.90
15452;DHT22;7827;53.594;9.938;2023-04-24T01:08:59;12.40;99.90
15452;DHT22;7827;53.594;9.938;2023-04-24T01:11:30;12.40;99.90
15452;DHT22;7827;53.594;9.938;2023-04-24T01:13:59;12.50;99.90
15452;DHT22;7827;53.594;9.938;2023-04-24T01:16:27;12.40;99.90
15452;DHT22;7827;53.594;9.938;2023-04-24T01:18:56;12.40;99.90
15452;DHT22;7827;53.594;9.938;2023-04-24T01:21:26;12.50;99.90
15452;DHT22;7827;53.594;9.938;2023-04-24T01:23:59;12.40;99.90
15452;DHT22;7827;53.594;9.938;2023-04-24T01:26:28;12.40;99.90
15452;DHT22;7827;53.594;9.938;2023-04-24T01:28:56;12.30;99.90
15452;DHT22;7827;53.594;9.938;2023-04-24T01:31:25;12.30;99.90
15452;DHT22;7827;53.594;9.938;2023-04-24T01:33:54;12.30;99.90
15452;DHT22;7827;53.594;9.938;2023-04-24T01:36:24;12.30;99.90
15452;DHT22;7827;53.594;9.938;2023-04-24T01:38:54;12.30;99.90
15452;DHT22;7827;53.594;9.938;2023-04-24T01:41:27;12.30;99.90
15452;DHT22;7827;53.594;9.938;2023-04-24T01:43:57;12.30;99.90
15452;DHT22;7827;53.594;9.938;2023-04-24T01:46:26;12.30;99.90
15452;DHT22;7827;53.594;9.938;2023-04-24T01:48:59;12.20;99.90
15452;DHT22;7827;53.594;9.938;2023-04-24T01:51:28;12.30;99.90
15452;DHT22;7827;53.594;9.938;2023-04-24T01:53:56;12.30;99.90
15452;DHT22;7827;53.594;9.938;2023-04-24T01:56:29;12.30;99.90
15452;DHT22;7827;53.594;9.938;2023-04-24T01:58:57;12.30;99.90
15452;DHT22;7827;53.594;9.938;2023-04-24T02:01:31;12.30;99.90
15452;DHT22;7827;53.594;9.938;2023-04-24T02:04:02;12.30;99.90
15452;DHT22;7827;53.594;9.938;2023-04-24T02:06:31;12.30;99.90
15452;DHT22;7827;53.594;9.938;2023-04-24T02:09:00;12.30;99.90
15452;DHT22;7827;53.594;9.938;2023-04-24T02:11:30;12.20;99.90
15452;DHT22;7827;53.594;9.938;2023-04-24T02:13:58;12.20;99.90
15452;DHT22;7827;53.594;9.938;2023-04-24T02:16:28;12.30;99.90
15452;DHT22;7827;53.594;9.938;2023-04-24T02:18:59;12.30;99.90
15452;DHT22;7827;53.594;9.938;2023-04-24T02:21:27;12.20;99.90
15452;DHT22;7827;53.594;9.938;2023-04-24T02:23:55;12.20;96.20
15452;DHT22;7827;53.594;9.938;2023-04-24T02:26:23;12.20;84.90
15452;DHT22;7827;53.594;9.938;2023-04-24T02:28:53;12.10;90.00
15452;DHT22;7827;53.594;9.938;2023-04-24T02:31:22;12.10;90.40
15452;DHT22;7827;53.594;9.938;2023-04-24T02:33:50;12.10;87.20
15452;DHT22;7827;53.594;9.938;2023-04-24T02:36:18;12.00;90.40
15452;DHT22;7827;53.594;9.938;2023-04-24T02:38:47;12.00;92.50
15452;DHT22;7827;53.594;9.938;2023-04-24T02:41:16;12.00;93.90
15452;DHT22;7827;53.594;9.938;2023-04-24T02:43:44;12.00;83.70
15452;DHT22;7827;53.594;9.938;2023-04-24T02:46:14;12.10;86.80
15452;DHT22;7827;53.594;9.938;2023-04-24T02:48:42;12.10;71.70
15452;DHT22;7827;53.594;9.938;2023-04-24T02:51:11;12.00;98.20
15452;DHT22;7827;53.594;9.938;2023-04-24T02:53:39;12.00;99.90
15452;DHT22;7827;53.594;9.938;2023-04-24T02:56:07;12.00;99.90
15452;DHT22;7827;53.594;9.938;2023-04-24T02:58:39;12.00;99.90
15452;DHT22;7827;53.594;9.938;2023-04-24T03:01:07;12.00;99.90
15452;DHT22;7827;53.594;9.938;2023-04-24T03:03:38;12.00;99.90
15452;DHT22;7827;53.594;9.938;2023-04-24T03:06:07;12.00;99.90
15452;DHT22;7827;53.594;9.938;2023-04-24T03:08:36;11.90;99.90
15452;DHT22;7827;53.594;9.938;2023-04-24T03:11:04;11.90;99.90
15452;DHT22;7827;53.594;9.938;2023-04-24T03:13:32;11.90;99.90
15452;DHT22;7827;53.594;9.938;2023-04-24T03:16:01;11.80;99.90
15452;DHT22;7827;53.594;9.938;2023-04-24T03:18:30;11.80;99.90
15452;DHT22;7827;53.594;9.938;2023-04-24T03:21:00;11.80;99.90
15452;DHT22;7827;53.594;9.938;2023-04-24T03:23:29;11.80;99.90
15452;DHT22;7827;53.594;9.938;2023-04-24T03:25:57;11.70;99.90
15452;DHT22;7827;53.594;9.938;2023-04-24T03:28:26;11.60;99.90
15452;DHT22;7827;53.594;9.938;2023-04-24T03:30:58;11.60;99.90
15452;DHT22;7827;53.594;9.938;2023-04-24T03:33:31;11.50;99.90
15452;DHT22;7827;53.594;9.938;2023-04-24T03:36:02;11.50;99.90
15452;DHT22;7827;53.594;9.938;2023-04-24T03:38:38;11.50;99.90
15452;DHT22;7827;53.594;9.938;2023-04-24T03:41:23;11.50;99.90
15452;DHT22;7827;53.594;9.938;2023-04-24T03:43:55;11.50;99.90
15452;DHT22;7827;53.594;9.938;2023-04-24T03:46:25;11.50;99.90
15452;DHT22;7827;53.594;9.938;2023-04-24T03:48:57;11.40;99.90
15452;DHT22;7827;53.594;9.938;2023-04-24T03:51:31;11.30;99.90
15452;DHT22;7827;53.594;9.938;2023-04-24T03:54:11;11.30;99.90
15452;DHT22;7827;53.594;9.938;2023-04-24T03:56:39;11.20;99.90
15452;DHT22;7827;53.594;9.938;2023-04-24T03:59:08;11.20;93.40
15452;DHT22;7827;53.594;9.938;2023-04-24T04:01:37;11.30;79.60
15452;DHT22;7827;53.594;9.938;2023-04-24T04:04:13;11.20;48.50
15452;DHT22;7827;53.594;9.938;2023-04-24T04:06:45;11.10;31.80
15452;DHT22;7827;53.594;9.938;2023-04-24T04:09:14;11.20;12.10
15452;DHT22;7827;53.594;9.938;2023-04-24T04:11:42;11.20;1.00
15452;DHT22;7827;53.594;9.938;2023-04-24T04:14:11;11.20;1.00
15452;DHT22;7827;53.594;9.938;2023-04-24T04:16:43;11.10;1.00
15452;DHT22;7827;53.594;9.938;2023-04-24T04:19:12;11.10;1.00
15452;DHT22;7827;53.594;9.938;2023-04-24T04:21:41;11.10;1.00
15452;DHT22;7827;53.594;9.938;2023-04-24T04:24:19;11.10;1.00
15452;DHT22;7827;53.594;9.938;2023-04-24T04:26:49;11.10;1.00
15452;DHT22;7827;53.594;9.938;2023-04-24T04:29:24;11.00;1.00
15452;DHT22;7827;53.594;9.938;2023-04-24T04:31:52;11.10;1.00
15452;DHT22;7827;53.594;9.938;2023-04-24T04:34:22;11.20;1.00
15452;DHT22;7827;53.594;9.938;2023-04-24T04:36:51;11.30;1.00
15452;DHT22;7827;53.594;9.938;2023-04-24T04:39:39;11.30;1.00
15452;DHT22;7827;53.594;9.938;2023-04-24T04:42:12;11.30;1.00
15452;DHT22;7827;53.594;9.938;2023-04-24T04:44:43;11.30;1.00
15452;DHT22;7827;53.594;9.938;2023-04-24T04:47:17;11.20;1.00
15452;DHT22;7827;53.594;9.938;2023-04-24T04:49:45;11.30;1.00
15452;DHT22;7827;53.594;9.938;2023-04-24T04:52:18;11.40;1.00
15452;DHT22;7827;53.594;9.938;2023-04-24T04:54:53;11.50;99.90
15452;DHT22;7827;53.594;9.938;2023-04-24T04:57:25;11.60;99.90
15452;DHT22;7827;53.594;9.938;2023-04-24T04:59:53;11.70;1.00
15452;DHT22;7827;53.594;9.938;2023-04-24T05:02:36;11.70;1.00
15452;DHT22;7827;53.594;9.938;2023-04-24T05:05:05;11.70;99.90
15452;DHT22;7827;53.594;9.938;2023-04-24T05:07:34;11.70;1.00
15452;DHT22;7827;53.594;9.938;2023-04-24T05:10:06;11.60;99.90
15452;DHT22;7827;53.594;9.938;2023-04-24T05:12:35;11.50;99.90
15452;DHT22;7827;53.594;9.938;2023-04-24T05:15:04;11.50;1.00
15452;DHT22;7827;53.594;9.938;2023-04-24T05:17:33;11.60;99.90
15452;DHT22;7827;53.594;9.938;2023-04-24T05:20:03;11.60;1.00
15452;DHT22;7827;53.594;9.938;2023-04-24T05:22:33;11.70;1.00
15452;DHT22;7827;53.594;9.938;2023-04-24T05:25:04;11.90;1.00
15452;DHT22;7827;53.594;9.938;2023-04-24T05:27:53;11.90;9.80
15452;DHT22;7827;53.594;9.938;2023-04-24T05:30:23;12.00;99.90
15452;DHT22;7827;53.594;9.938;2023-04-24T05:32:51;12.00;99.90
15452;DHT22;7827;53.594;9.938;2023-04-24T05:35:20;12.00;99.90
15452;DHT22;7827;53.594;9.938;2023-04-24T05:37:48;12.00;1.00
15452;DHT22;7827;53.594;9.938;2023-04-24T05:40:18;12.10;99.90
15452;DHT22;7827;53.594;9.938;2023-04-24T05:42:47;12.20;10.60
15452;DHT22;7827;53.594;9.938;2023-04-24T05:45:16;12.30;99.90
15452;DHT22;7827;53.594;9.938;2023-04-24T05:47:44;12.30;1.00
15452;DHT22;7827;53.594;9.938;2023-04-24T05:50:13;12.40;99.90
15452;DHT22;7827;53.594;9.938;2023-04-24T05:52:42;12.50;1.00
15452;DHT22;7827;53.594;9.938;2023-04-24T05:55:24;12.50;1.00
15452;DHT22;7827;53.594;9.938;2023-04-24T05:57:53;12.60;1.00
15452;DHT22;7827;53.594;9.938;2023-04-24T06:00:23;12.60;1.00
15452;DHT22;7827;53.594;9.938;2023-04-24T06:02:59;12.70;99.90
15452;DHT22;7827;53.594;9.938;2023-04-24T06:05:31;12.80;1.00
15452;DHT22;7827;53.594;9.938;2023-04-24T06:08:02;12.80;1.00
15452;DHT22;7827;53.594;9.938;2023-04-24T06:10:37;12.80;99.90
15452;DHT22;7827;53.594;9.938;2023-04-24T06:13:07;12.90;1.00
15452;DHT22;7827;53.594;9.938;2023-04-24T06:15:39;12.90;1.00
15452;DHT22;7827;53.594;9.938;2023-04-24T06:18:11;13.00;99.90
15452;DHT22;7827;53.594;9.938;2023-04-24T06:20:41;13.00;99.90
15452;DHT22;7827;53.594;9.938;2023-04-24T06:23:09;13.00;50.30
15452;DHT22;7827;53.594;9.938;2023-04-24T06:25:39;13.00;1.00
15452;DHT22;7827;53.594;9.938;2023-04-24T06:28:07;13.00;99.90
15452;DHT22;7827;53.594;9.938;2023-04-24T06:30:36;13.00;1.00
15452;DHT22;7827;53.594;9.938;2023-04-24T06:33:04;13.10;99.90
15452;DHT22;7827;53.594;9.938;2023-04-24T06:35:47;13.20;99.90
15452;DHT22;7827;53.594;9.938;2023-04-24T06:38:16;13.20;1.00
15452;DHT22;7827;53.594;9.938;2023-04-24T06:40:45;13.20;1.00
15452;DHT22;7827;53.594;9.938;2023-04-24T06:43:14;13.30;99.90
15452;DHT22;7827;53.594;9.938;2023-04-24T06:45:42;13.40;99.90
15452;DHT22;7827;53.594;9.938;2023-04-24T06:48:11;13.50;1.00
15452;DHT22;7827;53.594;9.938;2023-04-24T06:50:39;13.50;99.90
15452;DHT22;7827;53.594;9.938;2023-04-24T06:53:07;13.60;1.00
15452;DHT22;7827;53.594;9.938;2023-04-24T06:55:37;13.60;46.60
15452;DHT22;7827;53.594;9.938;2023-04-24T06:58:07;13.80;1.00
15452;DHT22;7827;53.594;9.938;2023-04-24T07:00:37;13.80;1.00
15452;DHT22;7827;53.594;9.938;2023-04-24T07:03:05;13.90;99.90
15452;DHT22;7827;53.594;9.938;2023-04-24T07:05:34;13.80;99.90
15452;DHT22;7827;53.594;9.938;2023-04-24T07:08:04;13.80;1.00
15452;DHT22;7827;53.594;9.938;2023-04-24T07:10:33;13.80;1.00
15452;DHT22;7827;53.594;9.938;2023-04-24T07:13:02;13.90;76.60
15452;DHT22;7827;53.594;9.938;2023-04-24T07:15:32;13.90;1.00
15452;DHT22;7827;53.594;9.938;2023-04-24T07:18:00;13.80;1.00
15452;DHT22;7827;53.594;9.938;2023-04-24T07:20:31;13.70;1.00
15452;DHT22;7827;53.594;9.938;2023-04-24T07:23:00;13.60;1.00
15452;DHT22;7827;53.594;9.938;2023-04-24T07:25:29;13.60;1.00
15452;DHT22;7827;53.594;9.938;2023-04-24T07:27:58;13.60;1.00
15452;DHT22;7827;53.594;9.938;2023-04-24T07:30:26;13.60;1.00
15452;DHT22;7827;53.594;9.938;2023-04-24T07:32:57;13.70;1.00
15452;DHT22;7827;53.594;9.938;2023-04-24T07:35:26;13.60;1.00
15452;DHT22;7827;53.594;9.938;2023-04-24T07:37:54;13.60;1.00
15452;DHT22;7827;53.594;9.938;2023-04-24T07:40:23;13.60;1.00
15452;DHT22;7827;53.594;9.938;2023-04-24T07:42:51;13.80;99.90
15452;DHT22;7827;53.594;9.938;2023-04-24T07:45:19;14.00;1.00
15452;DHT22;7827;53.594;9.938;2023-04-24T07:47:50;14.10;1.00
15452;DHT22;7827;53.594;9.938;2023-04-24T07:50:20;14.20;1.00
15452;DHT22;7827;53.594;9.938;2023-04-24T07:52:49;14.40;99.90
15452;DHT22;7827;53.594;9.938;2023-04-24T07:55:18;14.50;1.00
15452;DHT22;7827;53.594;9.938;2023-04-24T07:57:50;14.40;99.90
15452;DHT22;7827;53.594;9.938;2023-04-24T08:00:19;14.20;1.00
15452;DHT22;7827;53.594;9.938;2023-04-24T08:02:47;13.90;99.90
15452;DHT22;7827;53.594;9.938;2023-04-24T08:05:16;13.80;19.40
15452;DHT22;7827;53.594;9.938;2023-04-24T08:07:46;13.70;99.90
15452;DHT22;7827;53.594;9.938;2023-04-24T08:10:17;13.60;1.00
15452;DHT22;7827;53.594;9.938;2023-04-24T08:12:45;13.60;1.00
15452;DHT22;7827;53.594;9.938;2023-04-24T08:15:13;13.60;99.90
15452;DHT22;7827;53.594;9.938;2023-04-24T08:17:42;13.60;11.80
15452;DHT22;7827;53.594;9.938;2023-04-24T08:20:11;13.60;99.90
15452;DHT22;7827;53.594;9.938;2023-04-24T08:22:41;13.80;1.00
15452;DHT22;7827;53.594;9.938;2023-04-24T08:25:11;13.90;1.00
15452;DHT22;7827;53.594;9.938;2023-04-24T08:27:40;13.80;1.00
15452;DHT22;7827;53.594;9.938;2023-04-24T08:30:08;13.80;99.90
15452;DHT22;7827;53.594;9.938;2023-04-24T08:32:37;13.70;1.00
15452;DHT22;7827;53.594;9.938;2023-04-24T08:35:06;13.60;61.50
15452;DHT22;7827;53.594;9.938;2023-04-24T08:37:36;13.50;1.00
15452;DHT22;7827;53.594;9.938;2023-04-24T08:40:12;13.50;1.00
15452;DHT22;7827;53.594;9.938;2023-04-24T08:42:42;13.40;1.00
15452;DHT22;7827;53.594;9.938;2023-04-24T08:45:12;13.40;1.00
15452;DHT22;7827;53.594;9.938;2023-04-24T08:47:41;13.40;1.00
15452;DHT22;7827;53.594;9.938;2023-04-24T08:50:11;13.30;1.00
15452;DHT22;7827;53.594;9.938;2023-04-24T08:52:40;13.30;43.80
15452;DHT22;7827;53.594;9.938;2023-04-24T08:55:12;13.30;1.00
15452;DHT22;7827;53.594;9.938;2023-04-24T08:57:41;13.30;99.90
15452;DHT22;7827;53.594;9.938;2023-04-24T09:00:12;13.30;99.90
15452;DHT22;7827;53.594;9.938;2023-04-24T09:02:42;13.20;99.90
15452;DHT22;7827;53.594;9.938;2023-04-24T09:05:13;13.20;1.00
15452;DHT22;7827;53.594;9.938;2023-04-24T09:07:45;13.20;99.90
15452;DHT22;7827;53.594;9.938;2023-04-24T09:10:19;13.30;1.00
15452;DHT22;7827;53.594;9.938;2023-04-24T09:12:50;13.40;1.00
15452;DHT22;7827;53.594;9.938;2023-04-24T09:15:19;13.50;99.90
15452;DHT22;7827;53.594;9.938;2023-04-24T09:17:48;13.60;1.00
15452;DHT22;7827;53.594;9.938;2023-04-24T09:20:17;13.60;1.00
15452;DHT22;7827;53.594;9.938;2023-04-24T09:22:46;13.60;1.00
15452;DHT22;7827;53.594;9.938;2023-04-24T09:25:14;13.60;1.00
15452;DHT22;7827;53.594;9.938;2023-04-24T09:27:45;13.70;99.90
15452;DHT22;7827;53.594;9.938;2023-04-24T09:30:13;13.60;1.00
15452;DHT22;7827;53.594;9.938;2023-04-24T09:32:48;13.70;26.90
15452;DHT22;7827;53.594;9.938;2023-04-24T09:35:16;13.60;1.00
15452;DHT22;7827;53.594;9.938;2023-04-24T09:37:46;13.70;1.00
15452;DHT22;7827;53.594;9.938;2023-04-24T09:40:17;13.70;1.00
15452;DHT22;7827;53.594;9.938;2023-04-24T09:42:53;13.70;1.00
15452;DHT22;7827;53.594;9.938;2023-04-24T09:45:27;13.70;1.00
15452;DHT22;7827;53.594;9.938;2023-04-24T09:47:56;13.50;1.00
15452;DHT22;7827;53.594;9.938;2023-04-24T09:50:24;13.30;99.90
15452;DHT22;7827;53.594;9.938;2023-04-24T09:52:58;13.30;99.90
15452;DHT22;7827;53.594;9.938;2023-04-24T09:55:30;13.30;99.90
15452;DHT22;7827;53.594;9.938;2023-04-24T09:58:01;13.30;99.90
15452;DHT22;7827;53.594;9.938;2023-04-24T10:00:32;13.20;99.90
15452;DHT22;7827;53.594;9.938;2023-04-24T10:03:02;13.10;1.00
15452;DHT22;7827;53.594;9.938;2023-04-24T10:05:34;13.00;1.00
15452;DHT22;7827;53.594;9.938;2023-04-24T10:08:05;13.10;19.60
15452;DHT22;7827;53.594;9.938;2023-04-24T10:10:39;13.10;1.00
15452;DHT22;7827;53.594;9.938;2023-04-24T10:13:10;13.00;1.00
15452;DHT22;7827;53.594;9.938;2023-04-24T10:15:41;13.00;1.00
15452;DHT22;7827;53.594;9.938;2023-04-24T10:18:10;13.10;1.00
15452;DHT22;7827;53.594;9.938;2023-04-24T10:20:40;13.10;1.00
15452;DHT22;7827;53.594;9.938;2023-04-24T10:23:09;13.10;1.00
15452;DHT22;7827;53.594;9.938;2023-04-24T10:25:39;13.10;1.00
15452;DHT22;7827;53.594;9.938;2023-04-24T10:28:10;13.10;1.00
15452;DHT22;7827;53.594;9.938;2023-04-24T10:30:39;13.20;1.00
15452;DHT22;7827;53.594;9.938;2023-04-24T10:33:11;13.20;99.90
15452;DHT22;7827;53.594;9.938;2023-04-24T10:35:42;13.20;1.00
15452;DHT22;7827;53.594;9.938;2023-04-24T10:38:18;13.20;1.00
15452;DHT22;7827;53.594;9.938;2023-04-24T10:40:57;13.40;1.00
15452;DHT22;7827;53.594;9.938;2023-04-24T10:43:35;13.50;16.90
15452;DHT22;7827;53.594;9.938;2023-04-24T10:46:05;13.50;26.70
15452;DHT22;7827;53.594;9.938;2023-04-24T10:48:35;13.50;99.90
15452;DHT22;7827;53.594;9.938;2023-04-24T10:51:03;13.50;90.10
15452;DHT22;7827;53.594;9.938;2023-04-24T10:53:35;13.40;1.00
15452;DHT22;7827;53.594;9.938;2023-04-24T10:56:05;13.40;1.00
15452;DHT22;7827;53.594;9.938;2023-04-24T10:58:40;13.40;29.30
15452;DHT22;7827;53.594;9.938;2023-04-24T11:01:24;13.50;99.90
15452;DHT22;7827;53.594;9.938;2023-04-24T11:03:55;13.60;1.00
15452;DHT22;7827;53.594;9.938;2023-04-24T11:06:32;13.50;99.90
15452;DHT22;7827;53.594;9.938;2023-04-24T11:09:04;13.60;99.90
15452;DHT22;7827;53.594;9.938;2023-04-24T11:11:34;13.70;99.90
15452;DHT22;7827;53.594;9.938;2023-04-24T11:14:09;13.70;99.90
15452;DHT22;7827;53.594;9.938;2023-04-24T11:16:42;13.80;99.90
15452;DHT22;7827;53.594;9.938;2023-04-24T11:19:21;13.80;1.00
15452;DHT22;7827;53.594;9.938;2023-04-24T11:21:57;13.90;70.40
15452;DHT22;7827;53.594;9.938;2023-04-24T11:24:30;14.00;1.00
15452;DHT22;7827;53.594;9.938;2023-04-24T11:27:05;14.00;1.00
15452;DHT22;7827;53.594;9.938;2023-04-24T11:29:47;14.00;1.00
15452;DHT22;7827;53.594;9.938;2023-04-24T11:32:25;14.00;99.90
15452;DHT22;7827;53.594;9.938;2023-04-24T11:34:56;13.90;99.90
15452;DHT22;7827;53.594;9.938;2023-04-24T11:37:27;14.10;99.90
15452;DHT22;7827;53.594;9.938;2023-04-24T11:39:57;14.10;1.00
15452;DHT22;7827;53.594;9.938;2023-04-24T11:42:28;14.10;1.00
15452;DHT22;7827;53.594;9.938;2023-04-24T11:45:07;14.10;1.00
15452;DHT22;7827;53.594;9.938;2023-04-24T11:47:37;14.10;79.70
15452;DHT22;7827;53.594;9.938;2023-04-24T11:50:08;14.10;97.10
15452;DHT22;7827;53.594;9.938;2023-04-24T11:52:40;14.10;1.00
15452;DHT22;7827;53.594;9.938;2023-04-24T11:55:23;14.00;21.30
15452;DHT22;7827;53.594;9.938;2023-04-24T11:57:55;14.00;1.00
15452;DHT22;7827;53.594;9.938;2023-04-24T12:00:28;13.90;99.90
15452;DHT22;7827;53.594;9.938;2023-04-24T12:03:04;13.70;69.60
15452;DHT22;7827;53.594;9.938;2023-04-24T12:05:34;13.60;99.90
15452;DHT22;7827;53.594;9.938;2023-04-24T12:08:03;13.60;1.00
15452;DHT22;7827;53.594;9.938;2023-04-24T12:10:32;13.70;99.90
15452;DHT22;7827;53.594;9.938;2023-04-24T12:13:02;13.80;23.20
15452;DHT22;7827;53.594;9.938;2023-04-24T12:15:32;14.00;1.00
15452;DHT22;7827;53.594;9.938;2023-04-24T12:18:00;14.10;1.00
15452;DHT22;7827;53.594;9.938;2023-04-24T12:20:31;14.10;1.00
15452;DHT22;7827;53.594;9.938;2023-04-24T12:23:00;14.20;1.00
15452;DHT22;7827;53.594;9.938;2023-04-24T12:25:30;14.20;99.90
15452;DHT22;7827;53.594;9.938;2023-04-24T12:28:09;14.10;1.00
15452;DHT22;7827;53.594;9.938;2023-04-24T12:30:42;14.00;1.00
15452;DHT22;7827;53.594;9.938;2023-04-24T12:33:12;13.80;1.00
15452;DHT22;7827;53.594;9.938;2023-04-24T12:35:41;13.70;92.60
15452;DHT22;7827;53.594;9.938;2023-04-24T12:38:10;13.60;99.90
15452;DHT22;7827;53.594;9.938;2023-04-24T12:40:39;13.50;99.90
15452;DHT22;7827;53.594;9.938;2023-04-24T12:43:15;13.50;99.90
15452;DHT22;7827;53.594;9.938;2023-04-24T12:45:47;13.40;99.90
15452;DHT22;7827;53.594;9.938;2023-04-24T12:48:16;13.20;99.90
15452;DHT22;7827;53.594;9.938;2023-04-24T12:50:44;13.30;1.00
15452;DHT22;7827;53.594;9.938;2023-04-24T12:53:14;13.30;1.00
15452;DHT22;7827;53.594;9.938;2023-04-24T12:55:43;13.20;34.70
15452;DHT22;7827;53.594;9.938;2023-04-24T12:58:13;13.10;1.00
15452;DHT22;7827;53.594;9.938;2023-04-24T13:00:42;12.90;1.00
15452;DHT22;7827;53.594;9.938;2023-04-24T13:03:14;12.80;99.90
15452;DHT22;7827;53.594;9.938;2023-04-24T13:05:43;12.80;1.00
15452;DHT22;7827;53.594;9.938;2023-04-24T13:08:11;12.80;1.00
15452;DHT22;7827;53.594;9.938;2023-04-24T13:10:40;12.70;1.00
15452;DHT22;7827;53.594;9.938;2023-04-24T13:13:09;12.80;1.00
15452;DHT22;7827;53.594;9.938;2023-04-24T13:15:37;12.80;99.90
15452;DHT22;7827;53.594;9.938;2023-04-24T13:18:05;12.80;99.90
15452;DHT22;7827;53.594;9.938;2023-04-24T13:20:35;12.80;99.90
15452;DHT22;7827;53.594;9.938;2023-04-24T13:23:03;12.80;1.00
15452;DHT22;7827;53.594;9.938;2023-04-24T13:25:36;12.90;8.60
15452;DHT22;7827;53.594;9.938;2023-04-24T13:28:05;12.90;20.30
15452;DHT22;7827;53.594;9.938;2023-04-24T13:30:34;12.80;43.10
15452;DHT22;7827;53.594;9.938;2023-04-24T13:33:02;12.90;1.00
15452;DHT22;7827;53.594;9.938;2023-04-24T13:35:30;12.90;1.00
15452;DHT22;7827;53.594;9.938;2023-04-24T13:38:00;12.80;1.00
15452;DHT22;7827;53.594;9.938;2023-04-24T13:40:33;12.70;1.00
15452;DHT22;7827;53.594;9.938;2023-04-24T13:43:01;12.70;99.90
15452;DHT22;7827;53.594;9.938;2023-04-24T13:45:30;12.70;1.00
15452;DHT22;7827;53.594;9.938;2023-04-24T13:47:59;12.60;51.30
15452;DHT22;7827;53.594;9.938;2023-04-24T13:50:28;12.60;1.00
15452;DHT22;7827;53.594;9.938;2023-04-24T13:52:56;12.60;1.00
15452;DHT22;7827;53.594;9.938;2023-04-24T13:55:30;12.70;1.00
15452;DHT22;7827;53.594;9.938;2023-04-24T13:57:58;12.60;99.90
15452;DHT22;7827;53.594;9.938;2023-04-24T14:00:28;12.70;99.90
15452;DHT22;7827;53.594;9.938;2023-04-24T14:02:56;12.70;95.50
15452;DHT22;7827;53.594;9.938;2023-04-24T14:05:24;12.80;99.90
15452;DHT22;7827;53.594;9.938;2023-04-24T14:07:53;12.80;1.00
15452;DHT22;7827;53.594;9.938;2023-04-24T14:10:21;12.90;99.90
15452;DHT22;7827;53.594;9.938;2023-04-24T14:12:51;12.90;1.00
15452;DHT22;7827;53.594;9.938;2023-04-24T14:15:19;12.90;81.60
15452;DHT22;7827;53.594;9.938;2023-04-24T14:17:48;12.90;1.00
15452;DHT22;7827;53.594;9.938;2023-04-24T14:20:17;12.80;99.90
15452;DHT22;7827;53.594;9.938;2023-04-24T14:22:45;12.70;1.00
15452;DHT22;7827;53.594;9.938;2023-04-24T14:25:13;12.60;1.00
15452;DHT22;7827;53.594;9.938;2023-04-24T14:27:42;12.50;1.00
15452;DHT22;7827;53.594;9.938;2023-04-24T14:30:12;12.40;1.00
15452;DHT22;7827;53.594;9.938;2023-04-24T14:32:42;12.30;1.00
15452;DHT22;7827;53.594;9.938;2023-04-24T14:35:10;12.20;1.00
15452;DHT22;7827;53.594;9.938;2023-04-24T14:37:38;12.10;99.90
15452;DHT22;7827;53.594;9.938;2023-04-24T14:40:08;11.80;1.00
15452;DHT22;7827;53.594;9.938;2023-04-24T14:42:57;11.60;7.70
15452;DHT22;7827;53.594;9.938;2023-04-24T14:45:27;11.50;92.60
15452;DHT22;7827;53.594;9.938;2023-04-24T14:47:56;11.40;99.90
15452;DHT22;7827;53.594;9.938;2023-04-24T14:50:25;11.30;99.90
15452;DHT22;7827;53.594;9.938;2023-04-24T14:52:55;11.30;99.90
15452;DHT22;7827;53.594;9.938;2023-04-24T14:55:25;11.30;99.90
15452;DHT22;7827;53.594;9.938;2023-04-24T14:57:53;11.30;99.90
15452;DHT22;7827;53.594;9.938;2023-04-24T15:00:22;11.50;99.90
15452;DHT22;7827;53.594;9.938;2023-04-24T15:02:52;11.30;99.90
15452;DHT22;7827;53.594;9.938;2023-04-24T15:05:22;11.30;99.90
15452;DHT22;7827;53.594;9.938;2023-04-24T15:07:52;11.00;99.90
15452;DHT22;7827;53.594;9.938;2023-04-24T15:10:20;11.00;99.90
15452;DHT22;7827;53.594;9.938;2023-04-24T15:12:49;11.00;99.90
15452;DHT22;7827;53.594;9.938;2023-04-24T15:15:18;10.90;99.90
15452;DHT22;7827;53.594;9.938;2023-04-24T15:17:47;10.80;99.90
15452;DHT22;7827;53.594;9.938;2023-04-24T15:20:16;10.70;99.90
15452;DHT22;7827;53.594;9.938;2023-04-24T15:22:45;10.60;99.90
15452;DHT22;7827;53.594;9.938;2023-04-24T15:25:13;10.40;99.90
15452;DHT22;7827;53.594;9.938;2023-04-24T15:27:42;10.10;99.90
15452;DHT22;7827;53.594;9.938;2023-04-24T15:30:11;10.00;99.90
15452;DHT22;7827;53.594;9.938;2023-04-24T15:32:40;10.00;99.90
15452;DHT22;7827;53.594;9.938;2023-04-24T15:35:10;9.80;99.90
15452;DHT22;7827;53.594;9.938;2023-04-24T15:37:42;9.80;99.90
15452;DHT22;7827;53.594;9.938;2023-04-24T15:40:10;9.80;99.90
15452;DHT22;7827;53.594;9.938;2023-04-24T15:42:40;9.80;99.90
15452;DHT22;7827;53.594;9.938;2023-04-24T15:45:09;9.80;99.90
15452;DHT22;7827;53.594;9.938;2023-04-24T15:47:38;9.70;99.90
15452;DHT22;7827;53.594;9.938;2023-04-24T15:50:07;9.50;99.90
15452;DHT22;7827;53.594;9.938;2023-04-24T15:52:41;9.40;99.90
15452;DHT22;7827;53.594;9.938;2023-04-24T15:55:10;9.30;99.90
15452;DHT22;7827;53.594;9.938;2023-04-24T15:57:38;9.30;99.90
15452;DHT22;7827;53.594;9.938;2023-04-24T16:00:07;9.20;99.90
15452;DHT22;7827;53.594;9.938;2023-04-24T16:02:39;9.20;99.90
15452;DHT22;7827;53.594;9.938;2023-04-24T16:05:08;9.00;99.90
15452;DHT22;7827;53.594;9.938;2023-04-24T16:07:37;8.90;99.90
15452;DHT22;7827;53.594;9.938;2023-04-24T16:10:08;8.90;99.90
15452;DHT22;7827;53.594;9.938;2023-04-24T16:12:36;8.90;99.90